Pinewood, Minnesota
Current Conditions -  °F | °C
As of 12:13 PM on Friday 24 Oct 2014 (Local Time) from KBJI Reporting Station
Clear Clear  
Wind Chill: 67°   Ceiling: Unl
Heat Index: 67°   Visibility: 7mi
Dew Point: 37°   Wind: 10mph
Humidity: 33%   Direction: 230°SW
Pressure: 29.78"   Gusts: 16mph
Location:  47.4609°N, 95.2384°W
Report Text: KBJI 241713Z AUTO 23009G14KT 7SM CLR 20/03 A2978 RMK AO2 T01970029
Loading
Personal Weather Stations






























Interactive Weather Map
Tropical Storm Tracking
New forecast layout! Learn more

10-Day Weather Forecast

Advertisements
Track Severe Weather on mobile